sensor_id;sensor_type;location;lat;lon;timestamp;P1;durP1;ratioP1;P2;durP2;ratioP2
3597;SDS011;1813;52.016;8.714;2022-08-03T00:00:12;11.40;;;7.30;;
3597;SDS011;1813;52.016;8.714;2022-08-03T00:02:46;8.23;;;7.33;;
3597;SDS011;1813;52.016;8.714;2022-08-03T00:05:18;10.80;;;7.97;;
3597;SDS011;1813;52.016;8.714;2022-08-03T00:07:51;7.53;;;6.77;;
3597;SDS011;1813;52.016;8.714;2022-08-03T00:10:23;9.80;;;7.60;;
3597;SDS011;1813;52.016;8.714;2022-08-03T00:12:54;11.47;;;8.07;;
3597;SDS011;1813;52.016;8.714;2022-08-03T00:15:26;12.60;;;8.53;;
3597;SDS011;1813;52.016;8.714;2022-08-03T00:18:00;9.60;;;8.70;;
3597;SDS011;1813;52.016;8.714;2022-08-03T00:20:32;12.50;;;8.50;;
3597;SDS011;1813;52.016;8.714;2022-08-03T00:23:04;13.03;;;8.80;;
3597;SDS011;1813;52.016;8.714;2022-08-03T00:25:36;8.80;;;7.97;;
3597;SDS011;1813;52.016;8.714;2022-08-03T00:28:08;11.23;;;7.70;;
3597;SDS011;1813;52.016;8.714;2022-08-03T00:30:40;10.20;;;8.10;;
3597;SDS011;1813;52.016;8.714;2022-08-03T00:33:14;9.73;;;8.20;;
3597;SDS011;1813;52.016;8.714;2022-08-03T00:35:46;8.83;;;8.13;;
3597;SDS011;1813;52.016;8.714;2022-08-03T00:38:18;13.93;;;8.27;;
3597;SDS011;1813;52.016;8.714;2022-08-03T00:40:50;9.60;;;7.83;;
3597;SDS011;1813;52.016;8.714;2022-08-03T00:43:23;9.30;;;8.00;;
3597;SDS011;1813;52.016;8.714;2022-08-03T00:45:56;10.10;;;8.23;;
3597;SDS011;1813;52.016;8.714;2022-08-03T00:48:30;10.77;;;8.90;;
3597;SDS011;1813;52.016;8.714;2022-08-03T00:51:02;12.47;;;9.17;;
3597;SDS011;1813;52.016;8.714;2022-08-03T00:53:34;13.03;;;9.27;;
3597;SDS011;1813;52.016;8.714;2022-08-03T00:56:07;12.27;;;8.40;;
3597;SDS011;1813;52.016;8.714;2022-08-03T00:58:39;15.90;;;9.03;;
3597;SDS011;1813;52.016;8.714;2022-08-03T01:01:11;15.73;;;8.83;;
3597;SDS011;1813;52.016;8.714;2022-08-03T01:03:45;10.40;;;9.30;;
3597;SDS011;1813;52.016;8.714;2022-08-03T01:06:17;20.00;;;9.17;;
3597;SDS011;1813;52.016;8.714;2022-08-03T01:08:53;9.60;;;8.70;;
3597;SDS011;1813;52.016;8.714;2022-08-03T01:11:35;10.97;;;9.83;;
3597;SDS011;1813;52.016;8.714;2022-08-03T01:14:12;11.13;;;9.93;;
3597;SDS011;1813;52.016;8.714;2022-08-03T01:16:51;11.20;;;10.10;;
3597;SDS011;1813;52.016;8.714;2022-08-03T01:19:40;12.47;;;8.73;;
3597;SDS011;1813;52.016;8.714;2022-08-03T01:22:22;12.40;;;9.03;;
3597;SDS011;1813;52.016;8.714;2022-08-03T01:25:09;13.07;;;10.90;;
3597;SDS011;1813;52.016;8.714;2022-08-03T01:27:50;11.83;;;10.27;;
3597;SDS011;1813;52.016;8.714;2022-08-03T01:30:31;12.13;;;9.87;;
3597;SDS011;1813;52.016;8.714;2022-08-03T01:33:06;17.37;;;9.17;;
3597;SDS011;1813;52.016;8.714;2022-08-03T01:35:44;10.87;;;9.40;;
3597;SDS011;1813;52.016;8.714;2022-08-03T01:38:20;10.57;;;9.40;;
3597;SDS011;1813;52.016;8.714;2022-08-03T01:40:55;12.57;;;9.50;;
3597;SDS011;1813;52.016;8.714;2022-08-03T01:43:27;11.43;;;9.57;;
3597;SDS011;1813;52.016;8.714;2022-08-03T01:46:02;11.27;;;9.73;;
3597;SDS011;1813;52.016;8.714;2022-08-03T01:48:35;11.70;;;9.90;;
3597;SDS011;1813;52.016;8.714;2022-08-03T01:51:10;11.17;;;9.60;;
3597;SDS011;1813;52.016;8.714;2022-08-03T01:53:42;17.93;;;10.30;;
3597;SDS011;1813;52.016;8.714;2022-08-03T01:56:15;10.93;;;9.70;;
3597;SDS011;1813;52.016;8.714;2022-08-03T01:58:49;14.00;;;10.30;;
3597;SDS011;1813;52.016;8.714;2022-08-03T02:01:24;14.83;;;10.07;;
3597;SDS011;1813;52.016;8.714;2022-08-03T02:03:57;17.47;;;10.40;;
3597;SDS011;1813;52.016;8.714;2022-08-03T02:06:31;10.50;;;9.30;;
3597;SDS011;1813;52.016;8.714;2022-08-03T02:09:05;16.10;;;11.00;;
3597;SDS011;1813;52.016;8.714;2022-08-03T02:11:38;13.30;;;10.80;;
3597;SDS011;1813;52.016;8.714;2022-08-03T02:14:11;14.10;;;10.80;;
3597;SDS011;1813;52.016;8.714;2022-08-03T02:16:47;11.23;;;10.10;;
3597;SDS011;1813;52.016;8.714;2022-08-03T02:19:19;10.50;;;9.40;;
3597;SDS011;1813;52.016;8.714;2022-08-03T02:21:53;10.67;;;9.67;;
3597;SDS011;1813;52.016;8.714;2022-08-03T02:24:25;13.23;;;10.30;;
3597;SDS011;1813;52.016;8.714;2022-08-03T02:26:57;13.80;;;9.97;;
3597;SDS011;1813;52.016;8.714;2022-08-03T02:29:31;21.00;;;11.17;;
3597;SDS011;1813;52.016;8.714;2022-08-03T02:32:06;14.70;;;11.00;;
3597;SDS011;1813;52.016;8.714;2022-08-03T02:34:42;13.33;;;12.03;;
3597;SDS011;1813;52.016;8.714;2022-08-03T02:37:18;12.80;;;11.10;;
3597;SDS011;1813;52.016;8.714;2022-08-03T02:39:52;15.37;;;10.10;;
3597;SDS011;1813;52.016;8.714;2022-08-03T02:42:28;12.23;;;10.90;;
3597;SDS011;1813;52.016;8.714;2022-08-03T02:45:03;11.90;;;10.13;;
3597;SDS011;1813;52.016;8.714;2022-08-03T02:47:39;18.70;;;10.27;;
3597;SDS011;1813;52.016;8.714;2022-08-03T02:50:13;14.27;;;10.20;;
3597;SDS011;1813;52.016;8.714;2022-08-03T02:52:47;12.37;;;11.00;;
3597;SDS011;1813;52.016;8.714;2022-08-03T02:55:21;15.03;;;10.63;;
3597;SDS011;1813;52.016;8.714;2022-08-03T02:57:56;11.60;;;10.23;;
3597;SDS011;1813;52.016;8.714;2022-08-03T03:00:29;14.50;;;11.23;;
3597;SDS011;1813;52.016;8.714;2022-08-03T03:03:05;17.67;;;10.10;;
3597;SDS011;1813;52.016;8.714;2022-08-03T03:05:38;13.20;;;11.60;;
3597;SDS011;1813;52.016;8.714;2022-08-03T03:08:12;14.77;;;11.07;;
3597;SDS011;1813;52.016;8.714;2022-08-03T03:10:45;21.73;;;10.63;;
3597;SDS011;1813;52.016;8.714;2022-08-03T03:13:18;16.13;;;10.00;;
3597;SDS011;1813;52.016;8.714;2022-08-03T03:15:51;12.63;;;9.90;;
3597;SDS011;1813;52.016;8.714;2022-08-03T03:18:27;12.50;;;11.20;;
3597;SDS011;1813;52.016;8.714;2022-08-03T03:21:01;14.47;;;12.97;;
3597;SDS011;1813;52.016;8.714;2022-08-03T03:23:35;24.23;;;12.33;;
3597;SDS011;1813;52.016;8.714;2022-08-03T03:26:08;17.10;;;10.90;;
3597;SDS011;1813;52.016;8.714;2022-08-03T03:28:43;17.63;;;11.43;;
3597;SDS011;1813;52.016;8.714;2022-08-03T03:31:16;12.93;;;11.70;;
3597;SDS011;1813;52.016;8.714;2022-08-03T03:33:49;16.20;;;12.10;;
3597;SDS011;1813;52.016;8.714;2022-08-03T03:36:21;12.77;;;11.30;;
3597;SDS011;1813;52.016;8.714;2022-08-03T03:38:53;14.50;;;11.83;;
3597;SDS011;1813;52.016;8.714;2022-08-03T03:41:25;16.00;;;12.27;;
3597;SDS011;1813;52.016;8.714;2022-08-03T03:43:57;14.93;;;11.23;;
3597;SDS011;1813;52.016;8.714;2022-08-03T03:46:30;14.00;;;10.97;;
3597;SDS011;1813;52.016;8.714;2022-08-03T03:49:04;14.40;;;11.33;;
3597;SDS011;1813;52.016;8.714;2022-08-03T03:51:37;12.37;;;10.57;;
3597;SDS011;1813;52.016;8.714;2022-08-03T03:54:09;12.70;;;10.70;;
3597;SDS011;1813;52.016;8.714;2022-08-03T03:56:41;14.90;;;13.30;;
3597;SDS011;1813;52.016;8.714;2022-08-03T03:59:13;11.90;;;10.70;;
3597;SDS011;1813;52.016;8.714;2022-08-03T04:01:46;15.60;;;11.47;;
3597;SDS011;1813;52.016;8.714;2022-08-03T04:04:20;13.40;;;11.30;;
3597;SDS011;1813;52.016;8.714;2022-08-03T04:07:09;14.77;;;11.67;;
3597;SDS011;1813;52.016;8.714;2022-08-03T04:09:59;15.53;;;12.30;;
3597;SDS011;1813;52.016;8.714;2022-08-03T04:12:50;12.53;;;11.03;;
3597;SDS011;1813;52.016;8.714;2022-08-03T04:15:24;22.53;;;11.90;;
3597;SDS011;1813;52.016;8.714;2022-08-03T04:17:58;19.90;;;11.30;;
3597;SDS011;1813;52.016;8.714;2022-08-03T04:20:33;19.03;;;12.73;;
3597;SDS011;1813;52.016;8.714;2022-08-03T04:23:07;14.10;;;12.13;;
3597;SDS011;1813;52.016;8.714;2022-08-03T04:25:42;13.27;;;11.23;;
3597;SDS011;1813;52.016;8.714;2022-08-03T04:28:14;20.70;;;12.90;;
3597;SDS011;1813;52.016;8.714;2022-08-03T04:30:48;16.57;;;13.30;;
3597;SDS011;1813;52.016;8.714;2022-08-03T04:33:22;15.03;;;12.03;;
3597;SDS011;1813;52.016;8.714;2022-08-03T04:36:00;15.40;;;11.73;;
3597;SDS011;1813;52.016;8.714;2022-08-03T04:38:35;17.03;;;12.17;;
3597;SDS011;1813;52.016;8.714;2022-08-03T04:41:10;15.30;;;11.50;;
3597;SDS011;1813;52.016;8.714;2022-08-03T04:43:43;14.00;;;10.90;;
3597;SDS011;1813;52.016;8.714;2022-08-03T04:46:15;17.53;;;11.47;;
3597;SDS011;1813;52.016;8.714;2022-08-03T04:48:49;16.10;;;11.00;;
3597;SDS011;1813;52.016;8.714;2022-08-03T04:51:23;15.83;;;11.20;;
3597;SDS011;1813;52.016;8.714;2022-08-03T04:53:56;16.83;;;11.20;;
3597;SDS011;1813;52.016;8.714;2022-08-03T04:56:28;12.70;;;10.50;;
3597;SDS011;1813;52.016;8.714;2022-08-03T04:59:00;17.83;;;11.13;;
3597;SDS011;1813;52.016;8.714;2022-08-03T05:01:32;11.43;;;10.20;;
3597;SDS011;1813;52.016;8.714;2022-08-03T05:04:04;19.10;;;10.90;;
3597;SDS011;1813;52.016;8.714;2022-08-03T05:06:38;13.63;;;10.80;;
3597;SDS011;1813;52.016;8.714;2022-08-03T05:09:10;13.43;;;10.70;;
3597;SDS011;1813;52.016;8.714;2022-08-03T05:11:41;11.67;;;10.47;;
3597;SDS011;1813;52.016;8.714;2022-08-03T05:14:14;16.17;;;11.00;;
3597;SDS011;1813;52.016;8.714;2022-08-03T05:16:46;17.97;;;11.63;;
3597;SDS011;1813;52.016;8.714;2022-08-03T05:19:18;14.67;;;11.33;;
3597;SDS011;1813;52.016;8.714;2022-08-03T05:21:51;11.60;;;10.07;;
3597;SDS011;1813;52.016;8.714;2022-08-03T05:24:23;14.33;;;10.63;;
3597;SDS011;1813;52.016;8.714;2022-08-03T05:26:55;17.63;;;11.00;;
3597;SDS011;1813;52.016;8.714;2022-08-03T05:29:27;14.63;;;10.80;;
3597;SDS011;1813;52.016;8.714;2022-08-03T05:31:59;11.97;;;10.60;;
3597;SDS011;1813;52.016;8.714;2022-08-03T05:34:32;11.90;;;10.70;;
3597;SDS011;1813;52.016;8.714;2022-08-03T05:37:05;13.47;;;11.30;;
3597;SDS011;1813;52.016;8.714;2022-08-03T05:39:37;16.40;;;11.20;;
3597;SDS011;1813;52.016;8.714;2022-08-03T05:42:09;13.00;;;10.60;;
3597;SDS011;1813;52.016;8.714;2022-08-03T05:44:41;12.90;;;10.70;;
3597;SDS011;1813;52.016;8.714;2022-08-03T05:47:13;16.97;;;9.40;;
3597;SDS011;1813;52.016;8.714;2022-08-03T05:49:45;12.60;;;9.47;;
3597;SDS011;1813;52.016;8.714;2022-08-03T05:52:18;11.60;;;9.00;;
3597;SDS011;1813;52.016;8.714;2022-08-03T05:54:50;9.83;;;8.83;;
3597;SDS011;1813;52.016;8.714;2022-08-03T05:57:22;11.07;;;9.00;;
3597;SDS011;1813;52.016;8.714;2022-08-03T05:59:54;10.77;;;8.27;;
3597;SDS011;1813;52.016;8.714;2022-08-03T06:02:26;11.73;;;9.60;;
3597;SDS011;1813;52.016;8.714;2022-08-03T06:04:58;12.57;;;9.03;;
3597;SDS011;1813;52.016;8.714;2022-08-03T06:07:32;9.90;;;9.07;;
3597;SDS011;1813;52.016;8.714;2022-08-03T06:10:04;12.53;;;9.10;;
3597;SDS011;1813;52.016;8.714;2022-08-03T06:12:38;9.60;;;8.60;;
3597;SDS011;1813;52.016;8.714;2022-08-03T06:15:10;9.57;;;8.40;;
3597;SDS011;1813;52.016;8.714;2022-08-03T06:17:45;9.57;;;8.47;;
3597;SDS011;1813;52.016;8.714;2022-08-03T06:20:19;9.87;;;8.40;;
3597;SDS011;1813;52.016;8.714;2022-08-03T06:22:53;17.00;;;8.53;;
3597;SDS011;1813;52.016;8.714;2022-08-03T06:25:24;10.00;;;7.83;;
3597;SDS011;1813;52.016;8.714;2022-08-03T06:27:56;10.00;;;7.30;;
3597;SDS011;1813;52.016;8.714;2022-08-03T06:30:29;9.17;;;7.30;;
3597;SDS011;1813;52.016;8.714;2022-08-03T06:33:01;8.37;;;7.57;;
3597;SDS011;1813;52.016;8.714;2022-08-03T06:35:33;10.47;;;8.40;;
3597;SDS011;1813;52.016;8.714;2022-08-03T06:38:06;8.37;;;6.33;;
3597;SDS011;1813;52.016;8.714;2022-08-03T06:40:38;9.23;;;6.93;;
3597;SDS011;1813;52.016;8.714;2022-08-03T06:43:10;8.93;;;6.57;;
3597;SDS011;1813;52.016;8.714;2022-08-03T06:45:44;10.20;;;6.80;;
3597;SDS011;1813;52.016;8.714;2022-08-03T06:48:16;9.27;;;6.97;;
3597;SDS011;1813;52.016;8.714;2022-08-03T06:50:48;13.37;;;6.77;;
3597;SDS011;1813;52.016;8.714;2022-08-03T06:53:21;7.80;;;6.33;;
3597;SDS011;1813;52.016;8.714;2022-08-03T06:55:53;7.43;;;6.73;;
3597;SDS011;1813;52.016;8.714;2022-08-03T06:58:25;8.13;;;6.10;;
3597;SDS011;1813;52.016;8.714;2022-08-03T07:00:57;6.93;;;6.20;;
3597;SDS011;1813;52.016;8.714;2022-08-03T07:03:29;9.20;;;6.20;;
3597;SDS011;1813;52.016;8.714;2022-08-03T07:06:01;6.67;;;6.07;;
3597;SDS011;1813;52.016;8.714;2022-08-03T07:08:35;7.43;;;5.47;;
3597;SDS011;1813;52.016;8.714;2022-08-03T07:11:08;5.40;;;4.90;;
3597;SDS011;1813;52.016;8.714;2022-08-03T07:13:39;6.80;;;5.47;;
3597;SDS011;1813;52.016;8.714;2022-08-03T07:16:11;7.93;;;5.90;;
3597;SDS011;1813;52.016;8.714;2022-08-03T07:18:43;7.97;;;5.10;;
3597;SDS011;1813;52.016;8.714;2022-08-03T07:21:15;10.63;;;4.90;;
3597;SDS011;1813;52.016;8.714;2022-08-03T07:23:49;10.30;;;4.70;;
3597;SDS011;1813;52.016;8.714;2022-08-03T07:26:20;11.77;;;5.10;;
3597;SDS011;1813;52.016;8.714;2022-08-03T07:28:52;6.37;;;4.63;;
3597;SDS011;1813;52.016;8.714;2022-08-03T07:31:24;4.40;;;3.90;;
3597;SDS011;1813;52.016;8.714;2022-08-03T07:33:56;8.20;;;4.27;;
3597;SDS011;1813;52.016;8.714;2022-08-03T07:36:28;11.93;;;3.77;;
3597;SDS011;1813;52.016;8.714;2022-08-03T07:39:02;10.10;;;3.20;;
3597;SDS011;1813;52.016;8.714;2022-08-03T07:41:35;6.10;;;2.97;;
3597;SDS011;1813;52.016;8.714;2022-08-03T07:44:07;12.43;;;3.47;;
3597;SDS011;1813;52.016;8.714;2022-08-03T07:46:38;9.30;;;3.07;;
3597;SDS011;1813;52.016;8.714;2022-08-03T07:49:11;5.73;;;2.87;;
3597;SDS011;1813;52.016;8.714;2022-08-03T07:51:43;6.60;;;3.30;;
3597;SDS011;1813;52.016;8.714;2022-08-03T07:54:16;7.00;;;2.40;;
3597;SDS011;1813;52.016;8.714;2022-08-03T07:56:48;3.53;;;2.40;;
3597;SDS011;1813;52.016;8.714;2022-08-03T07:59:20;7.87;;;2.27;;
3597;SDS011;1813;52.016;8.714;2022-08-03T08:01:52;8.20;;;2.60;;
3597;SDS011;1813;52.016;8.714;2022-08-03T08:04:24;5.73;;;2.30;;
3597;SDS011;1813;52.016;8.714;2022-08-03T08:06:56;8.53;;;2.30;;
3597;SDS011;1813;52.016;8.714;2022-08-03T08:09:29;6.90;;;2.60;;
3597;SDS011;1813;52.016;8.714;2022-08-03T08:12:02;3.00;;;2.17;;
3597;SDS011;1813;52.016;8.714;2022-08-03T08:14:34;7.13;;;2.83;;
3597;SDS011;1813;52.016;8.714;2022-08-03T08:17:06;9.30;;;2.43;;
3597;SDS011;1813;52.016;8.714;2022-08-03T08:19:41;7.00;;;2.30;;
3597;SDS011;1813;52.016;8.714;2022-08-03T08:22:13;4.40;;;2.30;;
3597;SDS011;1813;52.016;8.714;2022-08-03T08:24:47;4.80;;;2.50;;
3597;SDS011;1813;52.016;8.714;2022-08-03T08:27:19;7.73;;;2.13;;
3597;SDS011;1813;52.016;8.714;2022-08-03T08:29:51;6.57;;;2.27;;
3597;SDS011;1813;52.016;8.714;2022-08-03T08:32:23;9.83;;;2.30;;
3597;SDS011;1813;52.016;8.714;2022-08-03T08:34:55;6.80;;;2.10;;
3597;SDS011;1813;52.016;8.714;2022-08-03T08:37:27;5.53;;;2.30;;
3597;SDS011;1813;52.016;8.714;2022-08-03T08:40:00;3.90;;;2.10;;
3597;SDS011;1813;52.016;8.714;2022-08-03T08:42:33;6.57;;;2.00;;
3597;SDS011;1813;52.016;8.714;2022-08-03T08:45:05;4.73;;;1.90;;
3597;SDS011;1813;52.016;8.714;2022-08-03T08:47:39;5.50;;;2.10;;
3597;SDS011;1813;52.016;8.714;2022-08-03T08:50:17;4.23;;;2.17;;
3597;SDS011;1813;52.016;8.714;2022-08-03T08:52:50;3.93;;;2.10;;
3597;SDS011;1813;52.016;8.714;2022-08-03T08:55:26;3.60;;;1.90;;
3597;SDS011;1813;52.016;8.714;2022-08-03T08:58:00;8.33;;;2.00;;
3597;SDS011;1813;52.016;8.714;2022-08-03T09:00:35;3.03;;;2.30;;
3597;SDS011;1813;52.016;8.714;2022-08-03T09:03:07;6.27;;;1.90;;
3597;SDS011;1813;52.016;8.714;2022-08-03T09:05:40;8.23;;;2.47;;
3597;SDS011;1813;52.016;8.714;2022-08-03T09:08:13;8.43;;;2.20;;
3597;SDS011;1813;52.016;8.714;2022-08-03T09:10:46;6.30;;;2.20;;
3597;SDS011;1813;52.016;8.714;2022-08-03T09:13:18;10.63;;;2.30;;
3597;SDS011;1813;52.016;8.714;2022-08-03T09:16:07;2.80;;;2.00;;
3597;SDS011;1813;52.016;8.714;2022-08-03T09:18:40;3.30;;;2.03;;
3597;SDS011;1813;52.016;8.714;2022-08-03T09:21:14;10.77;;;2.40;;
3597;SDS011;1813;52.016;8.714;2022-08-03T09:23:49;3.33;;;2.27;;
3597;SDS011;1813;52.016;8.714;2022-08-03T09:26:23;6.57;;;2.50;;
3597;SDS011;1813;52.016;8.714;2022-08-03T09:28:57;3.83;;;2.60;;
3597;SDS011;1813;52.016;8.714;2022-08-03T09:31:31;5.03;;;2.30;;
3597;SDS011;1813;52.016;8.714;2022-08-03T09:34:05;6.83;;;2.47;;
3597;SDS011;1813;52.016;8.714;2022-08-03T09:36:39;5.03;;;2.27;;
3597;SDS011;1813;52.016;8.714;2022-08-03T09:39:14;6.50;;;2.50;;
3597;SDS011;1813;52.016;8.714;2022-08-03T09:42:02;6.57;;;2.47;;
3597;SDS011;1813;52.016;8.714;2022-08-03T09:44:36;7.33;;;2.27;;
3597;SDS011;1813;52.016;8.714;2022-08-03T09:47:09;6.97;;;2.40;;
3597;SDS011;1813;52.016;8.714;2022-08-03T09:49:42;4.70;;;2.50;;
3597;SDS011;1813;52.016;8.714;2022-08-03T09:52:31;4.20;;;2.10;;
3597;SDS011;1813;52.016;8.714;2022-08-03T09:55:06;5.60;;;2.03;;
3597;SDS011;1813;52.016;8.714;2022-08-03T09:57:41;2.83;;;2.20;;
3597;SDS011;1813;52.016;8.714;2022-08-03T10:00:15;7.13;;;2.10;;
3597;SDS011;1813;52.016;8.714;2022-08-03T10:02:48;4.00;;;1.97;;
3597;SDS011;1813;52.016;8.714;2022-08-03T10:05:19;8.73;;;2.10;;
3597;SDS011;1813;52.016;8.714;2022-08-03T10:08:09;5.93;;;2.10;;
3597;SDS011;1813;52.016;8.714;2022-08-03T10:10:45;2.30;;;2.10;;
3597;SDS011;1813;52.016;8.714;2022-08-03T10:13:20;6.10;;;1.90;;
3597;SDS011;1813;52.016;8.714;2022-08-03T10:15:53;2.20;;;1.97;;
3597;SDS011;1813;52.016;8.714;2022-08-03T10:18:25;7.57;;;2.17;;
3597;SDS011;1813;52.016;8.714;2022-08-03T10:20:58;2.93;;;1.80;;
3597;SDS011;1813;52.016;8.714;2022-08-03T10:23:34;5.27;;;1.90;;
3597;SDS011;1813;52.016;8.714;2022-08-03T10:26:08;3.10;;;1.80;;
3597;SDS011;1813;52.016;8.714;2022-08-03T10:28:48;6.83;;;1.70;;
3597;SDS011;1813;52.016;8.714;2022-08-03T10:31:23;4.63;;;2.00;;
3597;SDS011;1813;52.016;8.714;2022-08-03T10:33:56;5.33;;;2.00;;
3597;SDS011;1813;52.016;8.714;2022-08-03T10:36:31;10.20;;;2.20;;
3597;SDS011;1813;52.016;8.714;2022-08-03T10:39:07;8.13;;;2.20;;
3597;SDS011;1813;52.016;8.714;2022-08-03T10:41:40;5.73;;;1.90;;
3597;SDS011;1813;52.016;8.714;2022-08-03T10:44:18;2.60;;;1.83;;
3597;SDS011;1813;52.016;8.714;2022-08-03T10:46:51;2.00;;;1.90;;
3597;SDS011;1813;52.016;8.714;2022-08-03T10:49:24;7.40;;;2.00;;
3597;SDS011;1813;52.016;8.714;2022-08-03T10:51:57;6.30;;;2.13;;
3597;SDS011;1813;52.016;8.714;2022-08-03T10:54:36;5.53;;;1.97;;
3597;SDS011;1813;52.016;8.714;2022-08-03T10:57:40;5.50;;;1.83;;
3597;SDS011;1813;52.016;8.714;2022-08-03T11:00:15;4.10;;;1.70;;
3597;SDS011;1813;52.016;8.714;2022-08-03T11:03:07;3.30;;;1.77;;
3597;SDS011;1813;52.016;8.714;2022-08-03T11:05:41;7.07;;;1.90;;
3597;SDS011;1813;52.016;8.714;2022-08-03T11:08:21;6.73;;;1.97;;
3597;SDS011;1813;52.016;8.714;2022-08-03T11:10:55;7.77;;;1.93;;
3597;SDS011;1813;52.016;8.714;2022-08-03T11:13:29;3.47;;;1.90;;
3597;SDS011;1813;52.016;8.714;2022-08-03T11:16:18;6.20;;;1.77;;
3597;SDS011;1813;52.016;8.714;2022-08-03T11:18:56;2.43;;;1.87;;
3597;SDS011;1813;52.016;8.714;2022-08-03T11:27:28;7.40;;;2.10;;
3597;SDS011;1813;52.016;8.714;2022-08-03T11:30:04;9.47;;;2.10;;
3597;SDS011;1813;52.016;8.714;2022-08-03T11:35:32;2.43;;;2.23;;
3597;SDS011;1813;52.016;8.714;2022-08-03T11:38:06;2.10;;;1.90;;
3597;SDS011;1813;52.016;8.714;2022-08-03T11:40:41;2.60;;;2.07;;
3597;SDS011;1813;52.016;8.714;2022-08-03T11:46:15;2.77;;;2.10;;
3597;SDS011;1813;52.016;8.714;2022-08-03T11:48:49;6.70;;;2.10;;
3597;SDS011;1813;52.016;8.714;2022-08-03T11:51:22;2.30;;;2.10;;
3597;SDS011;1813;52.016;8.714;2022-08-03T11:53:56;4.00;;;2.20;;
3597;SDS011;1813;52.016;8.714;2022-08-03T11:56:42;15.80;;;2.73;;
3597;SDS011;1813;52.016;8.714;2022-08-03T11:59:15;4.43;;;2.30;;
3597;SDS011;1813;52.016;8.714;2022-08-03T12:01:48;3.90;;;2.13;;
3597;SDS011;1813;52.016;8.714;2022-08-03T12:04:21;2.97;;;2.10;;
3597;SDS011;1813;52.016;8.714;2022-08-03T12:06:57;4.27;;;2.17;;
3597;SDS011;1813;52.016;8.714;2022-08-03T12:09:29;3.80;;;2.10;;
3597;SDS011;1813;52.016;8.714;2022-08-03T12:12:03;3.23;;;2.17;;
3597;SDS011;1813;52.016;8.714;2022-08-03T12:14:35;6.37;;;2.40;;
3597;SDS011;1813;52.016;8.714;2022-08-03T12:17:07;7.87;;;2.17;;
3597;SDS011;1813;52.016;8.714;2022-08-03T12:19:44;10.07;;;2.30;;
3597;SDS011;1813;52.016;8.714;2022-08-03T12:22:17;4.23;;;2.43;;
3597;SDS011;1813;52.016;8.714;2022-08-03T12:25:02;5.13;;;2.17;;
3597;SDS011;1813;52.016;8.714;2022-08-03T12:27:34;6.63;;;2.50;;
3597;SDS011;1813;52.016;8.714;2022-08-03T12:30:07;3.23;;;2.10;;
3597;SDS011;1813;52.016;8.714;2022-08-03T12:32:41;4.50;;;2.40;;
3597;SDS011;1813;52.016;8.714;2022-08-03T12:35:24;4.53;;;2.10;;
3597;SDS011;1813;52.016;8.714;2022-08-03T12:37:56;4.63;;;2.10;;
3597;SDS011;1813;52.016;8.714;2022-08-03T12:40:28;7.60;;;2.37;;
3597;SDS011;1813;52.016;8.714;2022-08-03T12:43:00;4.83;;;2.10;;
3597;SDS011;1813;52.016;8.714;2022-08-03T12:45:40;2.10;;;2.00;;
3597;SDS011;1813;52.016;8.714;2022-08-03T12:48:12;4.53;;;2.30;;
3597;SDS011;1813;52.016;8.714;2022-08-03T12:50:46;3.10;;;2.20;;
3597;SDS011;1813;52.016;8.714;2022-08-03T12:53:26;2.20;;;2.00;;
3597;SDS011;1813;52.016;8.714;2022-08-03T12:56:00;8.73;;;2.40;;
3597;SDS011;1813;52.016;8.714;2022-08-03T12:58:34;8.07;;;2.20;;
3597;SDS011;1813;52.016;8.714;2022-08-03T13:01:06;5.33;;;2.10;;
3597;SDS011;1813;52.016;8.714;2022-08-03T13:03:39;4.60;;;2.10;;
3597;SDS011;1813;52.016;8.714;2022-08-03T13:06:14;3.37;;;2.20;;
3597;SDS011;1813;52.016;8.714;2022-08-03T13:08:48;2.93;;;2.10;;
3597;SDS011;1813;52.016;8.714;2022-08-03T13:11:21;5.23;;;2.20;;
3597;SDS011;1813;52.016;8.714;2022-08-03T13:13:55;2.47;;;2.00;;
3597;SDS011;1813;52.016;8.714;2022-08-03T13:16:27;3.13;;;2.37;;
3597;SDS011;1813;52.016;8.714;2022-08-03T13:18:59;6.50;;;2.20;;
3597;SDS011;1813;52.016;8.714;2022-08-03T13:21:32;5.80;;;2.13;;
3597;SDS011;1813;52.016;8.714;2022-08-03T13:24:04;3.03;;;2.20;;
3597;SDS011;1813;52.016;8.714;2022-08-03T13:26:37;2.37;;;2.00;;
3597;SDS011;1813;52.016;8.714;2022-08-03T13:29:08;2.17;;;2.03;;
3597;SDS011;1813;52.016;8.714;2022-08-03T13:31:40;5.33;;;2.00;;
3597;SDS011;1813;52.016;8.714;2022-08-03T13:34:12;5.87;;;2.30;;
3597;SDS011;1813;52.016;8.714;2022-08-03T13:36:46;9.70;;;1.80;;
3597;SDS011;1813;52.016;8.714;2022-08-03T13:39:17;4.80;;;2.37;;
3597;SDS011;1813;52.016;8.714;2022-08-03T13:41:50;2.20;;;2.00;;
3597;SDS011;1813;52.016;8.714;2022-08-03T13:44:22;6.50;;;1.93;;
3597;SDS011;1813;52.016;8.714;2022-08-03T13:46:54;3.60;;;1.90;;
3597;SDS011;1813;52.016;8.714;2022-08-03T13:49:26;3.23;;;1.90;;
3597;SDS011;1813;52.016;8.714;2022-08-03T13:52:00;2.70;;;1.70;;
3597;SDS011;1813;52.016;8.714;2022-08-03T13:54:32;7.13;;;2.13;;
3597;SDS011;1813;52.016;8.714;2022-08-03T13:57:04;3.53;;;2.00;;
3597;SDS011;1813;52.016;8.714;2022-08-03T13:59:36;5.90;;;1.97;;
3597;SDS011;1813;52.016;8.714;2022-08-03T14:02:08;5.47;;;1.90;;
3597;SDS011;1813;52.016;8.714;2022-08-03T14:04:40;6.03;;;1.90;;
3597;SDS011;1813;52.016;8.714;2022-08-03T14:07:14;7.10;;;1.97;;
3597;SDS011;1813;52.016;8.714;2022-08-03T14:09:45;4.27;;;1.90;;
3597;SDS011;1813;52.016;8.714;2022-08-03T14:12:17;6.20;;;2.37;;
3597;SDS011;1813;52.016;8.714;2022-08-03T14:14:49;6.20;;;1.83;;
3597;SDS011;1813;52.016;8.714;2022-08-03T14:17:21;2.00;;;1.80;;
3597;SDS011;1813;52.016;8.714;2022-08-03T14:19:53;2.23;;;1.90;;
3597;SDS011;1813;52.016;8.714;2022-08-03T14:22:27;2.43;;;1.83;;
3597;SDS011;1813;52.016;8.714;2022-08-03T14:24:59;5.10;;;2.00;;
3597;SDS011;1813;52.016;8.714;2022-08-03T14:27:31;4.20;;;2.43;;
3597;SDS011;1813;52.016;8.714;2022-08-03T14:30:03;8.63;;;1.80;;
3597;SDS011;1813;52.016;8.714;2022-08-03T14:32:36;2.47;;;2.10;;
3597;SDS011;1813;52.016;8.714;2022-08-03T14:35:08;4.50;;;2.10;;
3597;SDS011;1813;52.016;8.714;2022-08-03T14:37:42;5.40;;;1.97;;
3597;SDS011;1813;52.016;8.714;2022-08-03T14:40:13;8.03;;;2.00;;
3597;SDS011;1813;52.016;8.714;2022-08-03T14:42:46;2.13;;;1.87;;
3597;SDS011;1813;52.016;8.714;2022-08-03T14:45:19;3.97;;;2.50;;
3597;SDS011;1813;52.016;8.714;2022-08-03T14:47:51;5.20;;;2.17;;
3597;SDS011;1813;52.016;8.714;2022-08-03T14:50:23;4.60;;;1.93;;
3597;SDS011;1813;52.016;8.714;2022-08-03T14:52:57;3.63;;;2.00;;
3597;SDS011;1813;52.016;8.714;2022-08-03T14:55:29;2.23;;;1.90;;
3597;SDS011;1813;52.016;8.714;2022-08-03T14:58:02;6.83;;;1.67;;
3597;SDS011;1813;52.016;8.714;2022-08-03T15:00:35;3.63;;;1.60;;
3597;SDS011;1813;52.016;8.714;2022-08-03T15:03:07;3.53;;;2.03;;
3597;SDS011;1813;52.016;8.714;2022-08-03T15:05:39;2.90;;;1.87;;
3597;SDS011;1813;52.016;8.714;2022-08-03T15:08:12;8.73;;;1.93;;
3597;SDS011;1813;52.016;8.714;2022-08-03T15:10:44;4.77;;;1.80;;
3597;SDS011;1813;52.016;8.714;2022-08-03T15:13:17;2.73;;;2.10;;
3597;SDS011;1813;52.016;8.714;2022-08-03T15:15:50;4.70;;;1.90;;
3597;SDS011;1813;52.016;8.714;2022-08-03T15:18:22;4.70;;;1.70;;
3597;SDS011;1813;52.016;8.714;2022-08-03T15:20:54;8.10;;;1.90;;
3597;SDS011;1813;52.016;8.714;2022-08-03T15:23:27;4.50;;;1.97;;
3597;SDS011;1813;52.016;8.714;2022-08-03T15:25:59;1.80;;;1.63;;
3597;SDS011;1813;52.016;8.714;2022-08-03T15:28:31;11.13;;;2.00;;
3597;SDS011;1813;52.016;8.714;2022-08-03T15:31:04;3.53;;;2.07;;
3597;SDS011;1813;52.016;8.714;2022-08-03T15:33:36;4.73;;;1.80;;
3597;SDS011;1813;52.016;8.714;2022-08-03T15:36:09;2.77;;;1.77;;
3597;SDS011;1813;52.016;8.714;2022-08-03T15:38:42;6.03;;;2.03;;
3597;SDS011;1813;52.016;8.714;2022-08-03T15:41:14;3.83;;;1.90;;
3597;SDS011;1813;52.016;8.714;2022-08-03T15:43:46;3.67;;;2.00;;
3597;SDS011;1813;52.016;8.714;2022-08-03T15:46:19;3.93;;;2.03;;
3597;SDS011;1813;52.016;8.714;2022-08-03T15:48:51;1.90;;;1.80;;
3597;SDS011;1813;52.016;8.714;2022-08-03T15:51:23;3.90;;;1.83;;
3597;SDS011;1813;52.016;8.714;2022-08-03T15:53:56;2.37;;;2.00;;
3597;SDS011;1813;52.016;8.714;2022-08-03T15:56:28;4.00;;;1.80;;